Time;durP1;ratioP1;P1;durP2;ratioP2;P2;SDS_P1;SDS_P2;PMS_P1;PMS_P2;Temp;Humidity;BMP_temperature;BMP_pressure;BME280_temperature;BME280_humidity;BME280_pressure;Samples;Min_cycle;Max_cycle;Signal;HPM_P1;HPM_P2
2022/10/30 00:00:30;;;;;;;47.58;26.92;;;12.20;99.90;;;;;;4931057;29;20103;-70
2022/10/30 00:02:56;;;;;;;52.08;28.50;;;12.20;99.90;;;;;;4930753;29;20054;-70
2022/10/30 00:05:22;;;;;;;53.78;26.77;;;12.20;99.90;;;;;;4930847;29;20134;-70
2022/10/30 00:07:48;;;;;;;56.45;26.45;;;12.20;99.90;;;;;;4930158;29;20401;-70
2022/10/30 00:10:14;;;;;;;60.08;28.77;;;12.30;99.90;;;;;;4933994;29;20053;-70
2022/10/30 00:12:40;;;;;;;50.60;29.58;;;12.40;99.90;;;;;;4934015;29;20417;-70
2022/10/30 00:15:07;;;;;;;50.00;29.33;;;12.40;99.90;;;;;;4933705;29;20055;-70
2022/10/30 00:17:33;;;;;;;52.47;29.27;;;12.50;99.90;;;;;;4932993;29;20052;-70
2022/10/30 00:19:58;;;;;;;54.30;25.88;;;12.60;99.90;;;;;;4948767;29;20098;-70
2022/10/30 00:22:24;;;;;;;54.40;28.55;;;12.50;99.90;;;;;;4933514;29;20055;-70
2022/10/30 00:24:50;;;;;;;51.42;26.60;;;12.50;99.90;;;;;;4932570;29;20052;-70
2022/10/30 00:27:16;;;;;;;46.17;27.30;;;12.60;99.90;;;;;;4930676;29;20044;-70
2022/10/30 00:29:42;;;;;;;56.92;30.17;;;12.50;99.90;;;;;;4931933;29;20830;-70
2022/10/30 00:32:07;;;;;;;48.88;28.92;;;12.50;99.90;;;;;;4937131;29;20059;-70
2022/10/30 00:34:33;;;;;;;59.15;30.45;;;12.50;99.90;;;;;;4936017;29;20052;-70
2022/10/30 00:36:58;;;;;;;48.13;28.63;;;12.70;99.90;;;;;;4931439;29;20059;-70
2022/10/30 00:39:24;;;;;;;61.30;32.60;;;12.70;99.90;;;;;;4931285;29;20059;-70
2022/10/30 00:41:50;;;;;;;51.10;27.45;;;12.70;99.90;;;;;;4932733;29;20126;-70
2022/10/30 00:44:44;;;;;;;51.85;29.73;;;12.70;99.90;;;;;;4931616;29;20052;-70
2022/10/30 00:47:26;;;;;;;59.08;29.42;;;12.80;99.90;;;;;;4931689;29;20390;-70
2022/10/30 00:50:01;;;;;;;43.97;26.08;;;12.80;99.90;;;;;;4931850;29;20058;-70
2022/10/30 00:52:31;;;;;;;47.58;28.92;;;12.80;99.90;;;;;;4932511;29;20059;-70
2022/10/30 00:55:01;;;;;;;53.78;28.55;;;12.80;99.90;;;;;;4941574;29;20084;-70
2022/10/30 00:57:26;;;;;;;49.95;26.45;;;12.80;99.90;;;;;;4935975;29;20058;-70
2022/10/30 00:59:52;;;;;;;49.30;29.75;;;12.90;99.90;;;;;;4931339;29;20717;-70
2022/10/30 01:02:19;;;;;;;56.78;29.70;;;12.90;99.90;;;;;;4947866;29;20063;-70
2022/10/30 01:04:47;;;;;;;49.08;27.13;;;12.90;99.90;;;;;;4932516;29;20086;-70
2022/10/30 01:07:15;;;;;;;55.53;27.92;;;12.80;99.90;;;;;;4947509;29;20059;-70
2022/10/30 01:09:41;;;;;;;57.08;28.38;;;12.90;99.90;;;;;;4933511;29;20044;-70
2022/10/30 01:12:07;;;;;;;53.53;29.15;;;12.80;99.90;;;;;;4933427;29;20150;-70
2022/10/30 01:14:40;;;;;;;47.58;26.50;;;13.00;99.90;;;;;;4933644;29;20134;-70
2022/10/30 01:17:25;;;;;;;51.08;26.98;;;12.90;99.90;;;;;;4948038;29;20055;-70
2022/10/30 01:19:58;;;;;;;51.50;26.95;;;12.90;99.90;;;;;;4928753;29;20091;-70
2022/10/30 01:22:38;;;;;;;40.55;26.38;;;12.90;99.90;;;;;;4931947;29;20142;-70
2022/10/30 01:25:31;;;;;;;39.05;25.90;;;13.00;99.90;;;;;;4931481;29;20161;-70
2022/10/30 01:28:34;;;;;;;51.00;27.80;;;12.90;99.90;;;;;;4931956;29;20100;-70
2022/10/30 01:31:29;;;;;;;74.20;32.63;;;12.90;99.90;;;;;;4931949;29;20059;-70
2022/10/30 01:33:57;;;;;;;54.47;28.58;;;12.90;99.90;;;;;;4932836;29;20087;-70
2022/10/30 01:36:31;;;;;;;46.47;26.30;;;13.00;99.90;;;;;;4929689;29;20055;-70
2022/10/30 01:39:01;;;;;;;47.40;28.60;;;13.00;99.90;;;;;;4919694;29;20048;-70
2022/10/30 01:41:27;;;;;;;59.75;30.65;;;13.00;99.90;;;;;;4932585;29;20059;-70
2022/10/30 01:44:05;;;;;;;46.45;26.98;;;13.00;99.90;;;;;;4932214;29;20401;-70
2022/10/30 01:46:34;;;;;;;51.35;27.20;;;13.00;99.90;;;;;;4926915;29;20050;-70
2022/10/30 01:49:24;;;;;;;48.35;28.55;;;13.00;99.90;;;;;;4932702;29;20059;-70
2022/10/30 01:52:09;;;;;;;42.05;27.52;;;13.00;99.90;;;;;;4932586;29;20543;-70
2022/10/30 01:54:41;;;;;;;42.75;24.88;;;12.90;99.90;;;;;;4930992;29;20086;-70
2022/10/30 01:57:30;;;;;;;55.65;26.80;;;12.80;99.90;;;;;;4930178;29;20044;-70
2022/10/30 02:00:05;;;;;;;47.22;25.95;;;12.80;99.90;;;;;;4929034;29;20043;-70
2022/10/30 02:02:32;;;;;;;38.42;24.27;;;12.70;99.90;;;;;;4932220;29;20059;-70
2022/10/30 02:04:58;;;;;;;45.08;25.38;;;12.70;99.90;;;;;;4930828;29;20044;-70
2022/10/30 02:07:24;;;;;;;44.70;25.42;;;12.60;99.90;;;;;;4931923;29;20050;-70
2022/10/30 02:09:52;;;;;;;49.53;25.67;;;12.50;99.90;;;;;;4946948;29;20047;-70
2022/10/30 02:12:19;;;;;;;46.80;25.63;;;12.70;99.90;;;;;;4931494;29;20043;-70
2022/10/30 02:14:48;;;;;;;46.90;26.00;;;12.40;99.90;;;;;;4929782;29;20082;-70
2022/10/30 02:17:14;;;;;;;43.42;26.13;;;12.30;99.90;;;;;;4927539;29;20143;-70
2022/10/30 02:19:40;;;;;;;40.78;25.95;;;12.30;99.90;;;;;;4931190;29;20513;-70
2022/10/30 02:22:05;;;;;;;49.33;27.25;;;12.30;99.90;;;;;;4931669;29;20077;-70
2022/10/30 02:24:32;;;;;;;45.08;25.38;;;12.20;99.90;;;;;;4927045;29;20063;-70
2022/10/30 02:26:58;;;;;;;41.45;25.95;;;12.10;99.90;;;;;;4929971;29;20051;-70
2022/10/30 02:29:24;;;;;;;47.58;26.08;;;12.20;99.90;;;;;;4929390;29;20065;-70
2022/10/30 02:31:49;;;;;;;50.40;26.88;;;12.00;99.90;;;;;;4928317;29;20059;-70
2022/10/30 02:34:15;;;;;;;48.75;26.48;;;12.10;99.90;;;;;;4930856;29;20048;-70
2022/10/30 02:36:41;;;;;;;53.80;26.40;;;12.00;99.90;;;;;;4945272;28;20060;-70
2022/10/30 02:39:07;;;;;;;49.28;28.27;;;12.00;99.90;;;;;;4929671;29;20420;-70
2022/10/30 02:41:32;;;;;;;45.97;27.60;;;12.10;99.90;;;;;;4927966;29;20043;-70
2022/10/30 02:43:58;;;;;;;45.22;26.33;;;12.10;99.90;;;;;;4930744;29;20044;-70
2022/10/30 02:46:24;;;;;;;49.33;26.60;;;12.10;99.90;;;;;;4929008;29;20075;-70
2022/10/30 02:48:49;;;;;;;55.60;26.83;;;12.00;99.90;;;;;;4927740;29;20053;-70
2022/10/30 02:51:15;;;;;;;64.72;29.20;;;12.10;99.90;;;;;;4930044;29;20426;-70
2022/10/30 02:53:41;;;;;;;49.42;27.13;;;12.10;99.90;;;;;;4945327;29;20437;-70
2022/10/30 02:56:12;;;;;;;53.88;28.27;;;12.10;99.90;;;;;;4930256;29;20138;-70
2022/10/30 02:58:37;;;;;;;40.60;25.67;;;12.00;99.90;;;;;;4924773;29;20138;-70
2022/10/30 03:01:12;;;;;;;48.03;26.60;;;12.00;99.90;;;;;;4929482;29;20576;-70
2022/10/30 03:03:38;;;;;;;37.40;25.33;;;11.90;99.90;;;;;;4944757;28;20054;-70
2022/10/30 03:06:06;;;;;;;44.63;25.63;;;11.90;99.90;;;;;;4930140;29;20122;-70
2022/10/30 03:08:32;;;;;;;;;;;11.80;99.90;;;;;;4929868;29;20052;-70
2022/10/30 03:11:02;;;;;;;45.03;26.77;;;11.80;99.90;;;;;;4930199;29;19927;-71
2022/10/30 03:13:30;;;;;;;56.15;25.17;;;11.70;99.90;;;;;;4930663;29;20060;-70
2022/10/30 03:16:17;;;;;;;40.33;24.03;;;11.70;99.90;;;;;;4930240;29;20060;-70
2022/10/30 03:18:43;;;;;;;46.65;26.27;;;11.70;99.90;;;;;;4929916;29;20314;-70
2022/10/30 03:21:12;;;;;;;48.65;27.90;;;11.60;99.90;;;;;;4928515;29;20044;-70
2022/10/30 03:23:38;;;;;;;55.67;26.70;;;11.60;99.90;;;;;;4928128;29;20059;-70
2022/10/30 03:26:04;;;;;;;45.47;25.70;;;11.60;99.90;;;;;;4928942;29;20044;-71
2022/10/30 03:28:31;;;;;;;47.20;26.48;;;11.60;99.90;;;;;;4931651;29;20052;-70
2022/10/30 03:30:59;;;;;;;48.88;26.42;;;11.50;99.90;;;;;;4930251;29;20184;-70
2022/10/30 03:33:27;;;;;;;51.38;27.48;;;11.50;99.90;;;;;;4930706;29;20048;-70
2022/10/30 03:35:53;;;;;;;;;;;11.50;99.90;;;;;;4932055;29;20721;-70
2022/10/30 03:38:18;;;;;;;45.70;24.98;;;11.40;99.90;;;;;;4925914;29;19927;-71
2022/10/30 03:40:44;;;;;;;39.92;24.60;;;11.50;99.90;;;;;;4930767;29;20453;-71
2022/10/30 03:43:10;;;;;;;58.78;28.17;;;11.50;99.90;;;;;;4945616;28;20605;-70
2022/10/30 03:45:36;;;;;;;59.92;28.95;;;11.40;99.90;;;;;;4934644;29;20039;-70
2022/10/30 03:48:03;;;;;;;50.83;28.83;;;11.50;99.90;;;;;;4949032;29;20048;-70
2022/10/30 03:50:29;;;;;;;52.40;28.58;;;11.60;99.90;;;;;;4933776;29;20122;-71
2022/10/30 03:52:56;;;;;;;68.53;33.90;;;11.60;99.90;;;;;;4932404;29;20597;-70
2022/10/30 03:55:23;;;;;;;61.42;29.48;;;11.70;99.90;;;;;;4933394;29;20036;-71
2022/10/30 03:57:48;;;;;;;58.97;29.08;;;11.70;99.90;;;;;;4926643;29;20380;-71
2022/10/30 04:00:15;;;;;;;68.05;30.08;;;11.60;99.90;;;;;;4931813;29;20170;-71
2022/10/30 04:02:49;;;;;;;48.45;29.27;;;11.70;99.90;;;;;;4934019;29;20074;-70
2022/10/30 04:05:16;;;;;;;53.75;28.60;;;11.80;99.90;;;;;;4935183;29;20047;-71
2022/10/30 04:07:44;;;;;;;60.53;29.77;;;11.80;99.90;;;;;;4934058;29;20048;-71
2022/10/30 04:10:10;;;;;;;52.00;28.58;;;11.80;99.90;;;;;;4934006;29;20118;-71
2022/10/30 04:12:36;;;;;;;53.45;27.65;;;11.80;99.90;;;;;;4931149;29;20050;-71
2022/10/30 04:15:02;;;;;;;64.22;28.35;;;11.80;99.90;;;;;;4931607;29;20055;-71
2022/10/30 04:17:28;;;;;;;54.72;28.40;;;11.80;99.90;;;;;;4939509;29;20409;-71
2022/10/30 04:19:53;;;;;;;54.58;29.83;;;11.80;99.90;;;;;;4947653;29;20043;-71
2022/10/30 04:22:19;;;;;;;45.75;29.33;;;11.80;99.90;;;;;;4932322;29;20134;-71
2022/10/30 04:24:47;;;;;;;50.08;27.17;;;11.80;99.90;;;;;;4933474;29;20036;-71
2022/10/30 04:27:13;;;;;;;53.80;28.30;;;11.70;99.90;;;;;;4916085;29;20433;-71
2022/10/30 04:29:41;;;;;;;56.63;28.63;;;11.80;99.90;;;;;;4932267;29;20056;-71
2022/10/30 04:32:07;;;;;;;59.42;29.35;;;11.80;99.90;;;;;;4933513;29;20086;-71
2022/10/30 04:34:33;;;;;;;62.25;30.50;;;11.80;99.90;;;;;;4930544;29;20055;-71
2022/10/30 04:36:59;;;;;;;61.40;29.63;;;11.70;99.90;;;;;;4947553;28;20060;-71
2022/10/30 04:39:24;;;;;;;51.00;29.50;;;11.70;99.90;;;;;;4931750;29;20058;-71
2022/10/30 04:41:50;;;;;;;57.08;30.17;;;11.80;99.90;;;;;;4931985;29;20051;-71
2022/10/30 04:44:16;;;;;;;45.80;30.08;;;11.70;99.90;;;;;;4947898;29;20098;-71
2022/10/30 04:46:41;;;;;;;50.33;28.52;;;11.70;99.90;;;;;;4931926;29;20122;-71
2022/10/30 04:49:07;;;;;;;56.28;31.45;;;11.70;99.90;;;;;;4931161;29;20493;-71
2022/10/30 04:51:33;;;;;;;50.20;29.38;;;11.70;99.90;;;;;;4948376;28;20087;-71
2022/10/30 04:53:59;;;;;;;56.40;30.30;;;12.00;99.90;;;;;;4929956;29;20044;-71
2022/10/30 04:56:24;;;;;;;48.38;28.80;;;11.60;99.90;;;;;;4932719;29;20472;-71
2022/10/30 04:58:51;;;;;;;46.55;29.15;;;11.70;99.90;;;;;;4932213;29;20055;-71
2022/10/30 05:01:16;;;;;;;51.20;28.00;;;11.60;99.90;;;;;;4947477;29;20148;-71
2022/10/30 05:03:42;;;;;;;54.10;29.63;;;11.70;99.90;;;;;;4946651;29;20062;-71
2022/10/30 05:06:29;;;;;;;57.17;29.73;;;11.70;99.90;;;;;;4932442;29;20156;-71
2022/10/30 05:08:55;;;;;;;52.00;29.02;;;11.70;99.90;;;;;;4945718;28;20098;-71
2022/10/30 05:11:21;;;;;;;56.40;27.48;;;11.60;99.90;;;;;;4932463;29;20048;-71
2022/10/30 05:13:47;;;;;;;64.70;28.27;;;11.60;99.90;;;;;;4947302;29;20413;-71
2022/10/30 05:16:12;;;;;;;47.17;26.50;;;11.60;99.90;;;;;;4929209;29;20055;-71
2022/10/30 05:18:38;;;;;;;39.80;26.27;;;11.50;99.90;;;;;;4946759;29;20133;-71
2022/10/30 05:21:04;;;;;;;45.13;27.52;;;11.50;99.90;;;;;;4931797;29;20128;-71
2022/10/30 05:23:29;;;;;;;52.10;28.90;;;11.50;99.90;;;;;;4946227;29;20122;-71
2022/10/30 05:25:55;;;;;;;50.10;27.25;;;11.50;99.90;;;;;;4931554;29;20043;-71
2022/10/30 05:28:20;;;;;;;51.00;30.27;;;11.40;99.90;;;;;;4932632;29;20086;-71
2022/10/30 05:30:46;;;;;;;62.95;30.55;;;11.40;99.90;;;;;;4954143;28;20047;-71
2022/10/30 05:33:15;;;;;;;52.92;26.67;;;11.40;99.90;;;;;;4940878;29;20055;-71
2022/10/30 05:35:40;;;;;;;49.40;28.33;;;11.40;99.90;;;;;;4931170;29;20082;-71
2022/10/30 05:38:06;;;;;;;55.75;29.35;;;11.40;99.90;;;;;;4932289;29;20489;-71
2022/10/30 05:40:33;;;;;;;61.75;30.83;;;11.30;99.90;;;;;;4931525;29;20052;-71
2022/10/30 05:42:59;;;;;;;56.30;30.45;;;11.40;99.90;;;;;;4927460;29;20063;-71
2022/10/30 05:45:25;;;;;;;56.20;29.85;;;11.40;99.90;;;;;;4932838;29;20443;-71
2022/10/30 05:47:54;;;;;;;54.50;27.40;;;11.40;99.90;;;;;;4931734;29;20118;-71
2022/10/30 05:50:20;;;;;;;48.22;28.83;;;11.30;99.90;;;;;;4931858;29;20051;-71
2022/10/30 05:52:46;;;;;;;51.00;29.15;;;11.30;99.90;;;;;;4930694;29;20136;-71
2022/10/30 05:55:11;;;;;;;61.45;31.23;;;11.30;99.90;;;;;;4930481;29;20118;-71
2022/10/30 05:57:37;;;;;;;49.15;29.92;;;11.30;99.90;;;;;;4929939;29;20035;-71
2022/10/30 06:00:05;;;;;;;56.78;33.17;;;11.40;99.90;;;;;;4930358;29;20437;-71
2022/10/30 06:02:31;;;;;;;56.95;32.33;;;11.40;99.90;;;;;;4930800;29;20512;-71
2022/10/30 06:04:57;;;;;;;60.03;31.52;;;11.40;99.90;;;;;;4929692;29;20131;-71
2022/10/30 06:07:22;;;;;;;53.90;32.38;;;11.40;99.90;;;;;;4930341;29;20130;-72
2022/10/30 06:09:48;;;;;;;58.67;32.75;;;11.50;99.90;;;;;;4946354;29;20475;-71
2022/10/30 06:12:13;;;;;;;62.42;33.05;;;11.50;99.90;;;;;;4930658;29;20103;-71
2022/10/30 06:14:39;;;;;;;68.68;33.58;;;11.60;99.90;;;;;;4926404;29;20086;-71
2022/10/30 06:17:05;;;;;;;62.00;32.20;;;11.60;99.90;;;;;;4946174;28;20062;-71
2022/10/30 06:19:30;;;;;;;77.35;34.92;;;11.70;99.90;;;;;;4930113;29;20087;-71
2022/10/30 06:21:56;;;;;;;59.20;33.70;;;11.70;99.90;;;;;;4930067;29;20047;-71
2022/10/30 06:24:22;;;;;;;57.50;32.85;;;11.70;99.90;;;;;;4929084;29;20052;-71
2022/10/30 06:26:49;;;;;;;69.28;33.70;;;11.70;99.90;;;;;;4931708;29;20079;-71
2022/10/30 06:29:15;;;;;;;57.72;34.90;;;11.70;99.90;;;;;;4928218;29;20143;-71
2022/10/30 06:31:41;;;;;;;59.97;35.33;;;11.70;99.90;;;;;;4926369;29;20146;-71
2022/10/30 06:34:06;;;;;;;61.78;35.05;;;11.80;99.90;;;;;;4933712;29;20059;-71
2022/10/30 06:36:33;;;;;;;61.72;34.45;;;11.80;99.90;;;;;;4930870;29;20047;-71
2022/10/30 06:38:59;;;;;;;68.55;34.95;;;11.90;99.90;;;;;;4930460;29;20553;-71
2022/10/30 06:41:24;;;;;;;70.30;35.70;;;11.90;99.90;;;;;;4928877;29;20123;-71
2022/10/30 06:43:50;;;;;;;62.75;33.33;;;11.90;99.90;;;;;;4931047;29;20171;-71
2022/10/30 06:46:15;;;;;;;68.95;34.20;;;11.90;99.90;;;;;;4929418;29;20055;-71
2022/10/30 06:48:41;;;;;;;52.70;33.42;;;11.90;99.90;;;;;;4929545;29;20842;-71
2022/10/30 06:51:07;;;;;;;60.55;32.22;;;12.00;99.90;;;;;;4929574;29;20048;-71
2022/10/30 06:53:32;;;;;;;70.45;33.40;;;12.00;99.90;;;;;;4929515;29;20102;-71
2022/10/30 06:56:02;;;;;;;44.75;29.73;;;11.90;99.90;;;;;;4928792;29;20066;-71
2022/10/30 06:58:37;;;;;;;50.05;32.08;;;11.90;99.90;;;;;;4929755;29;20043;-71
2022/10/30 07:01:04;;;;;;;70.63;35.83;;;11.80;99.90;;;;;;4929647;29;20047;-71
2022/10/30 07:03:30;;;;;;;51.15;30.52;;;11.90;99.90;;;;;;4927062;29;20602;-71
2022/10/30 07:05:56;;;;;;;51.03;32.00;;;11.90;99.90;;;;;;4929728;29;20059;-71
2022/10/30 07:08:21;;;;;;;50.33;31.98;;;11.90;99.90;;;;;;4928215;29;20051;-71
2022/10/30 07:10:47;;;;;;;52.85;34.63;;;11.90;99.90;;;;;;4930416;29;20508;-71
2022/10/30 07:13:13;;;;;;;60.85;33.72;;;11.90;99.90;;;;;;4930468;29;20071;-71
2022/10/30 07:15:38;;;;;;;59.67;35.58;;;11.90;99.90;;;;;;4929542;29;20107;-71
2022/10/30 07:18:04;;;;;;;76.13;37.17;;;12.10;99.90;;;;;;4945637;28;20051;-71
2022/10/30 07:20:33;;;;;;;55.97;33.72;;;12.00;99.90;;;;;;4935047;29;20047;-71
2022/10/30 07:22:59;;;;;;;67.38;34.67;;;11.90;99.90;;;;;;4933189;29;20055;-71
2022/10/30 07:25:25;;;;;;;72.28;35.35;;;12.00;99.90;;;;;;4935803;29;20043;-71
2022/10/30 07:27:52;;;;;;;54.80;32.83;;;12.00;99.90;;;;;;4933332;29;20039;-71
2022/10/30 07:30:20;;;;;;;57.17;34.58;;;12.10;99.90;;;;;;4932582;29;20048;-71
2022/10/30 07:32:46;;;;;;;59.08;34.75;;;12.10;99.90;;;;;;4947556;28;20416;-71
2022/10/30 07:35:13;;;;;;;62.03;31.55;;;12.10;99.90;;;;;;4948025;28;20056;-71
2022/10/30 07:37:39;;;;;;;60.37;32.53;;;12.00;99.90;;;;;;4933217;29;20769;-71
2022/10/30 07:40:06;;;;;;;65.43;33.03;;;12.10;99.90;;;;;;4933209;29;20456;-71
2022/10/30 07:42:33;;;;;;;59.00;34.22;;;12.10;99.90;;;;;;4933945;29;20052;-71
2022/10/30 07:44:58;;;;;;;63.10;34.10;;;12.10;99.90;;;;;;4931976;29;20075;-71
2022/10/30 07:47:24;;;;;;;75.25;33.92;;;12.20;99.90;;;;;;4930315;29;20513;-71
2022/10/30 07:49:50;;;;;;;55.45;34.75;;;12.20;99.90;;;;;;4932830;29;20086;-71
2022/10/30 07:52:15;;;;;;;65.47;35.15;;;12.20;99.90;;;;;;4933663;29;20051;-71
2022/10/30 07:54:41;;;;;;;67.65;36.13;;;12.30;99.90;;;;;;4929356;29;20048;-71
2022/10/30 07:57:07;;;;;;;67.07;37.92;;;12.40;99.90;;;;;;4948757;28;20055;-71
2022/10/30 07:59:32;;;;;;;73.45;37.97;;;12.50;99.90;;;;;;4931244;29;20505;-71
2022/10/30 08:01:59;;;;;;;83.72;36.85;;;12.60;99.90;;;;;;4948063;29;20047;-71
2022/10/30 08:04:25;;;;;;;80.90;36.97;;;12.60;99.90;;;;;;4931916;29;20079;-71
2022/10/30 08:06:51;;;;;;;72.30;39.95;;;12.70;99.90;;;;;;4932551;29;20040;-71
2022/10/30 08:09:17;;;;;;;74.50;39.78;;;12.70;99.90;;;;;;4932461;29;20055;-72
2022/10/30 08:11:43;;;;;;;67.95;38.35;;;12.80;99.90;;;;;;4931507;29;20055;-72
2022/10/30 08:14:08;;;;;;;66.38;37.17;;;12.80;99.90;;;;;;4947634;28;20083;-72
2022/10/30 08:16:34;;;;;;;63.78;36.75;;;12.90;99.90;;;;;;4929225;29;20101;-71
2022/10/30 08:18:59;;;;;;;64.93;36.17;;;13.00;99.90;;;;;;4933054;29;20052;-71
2022/10/30 08:21:25;;;;;;;63.85;39.40;;;13.00;99.90;;;;;;4932447;29;20047;-72
2022/10/30 08:23:51;;;;;;;62.25;35.95;;;13.00;99.90;;;;;;4933288;29;20168;-71
2022/10/30 08:26:17;;;;;;;66.50;37.85;;;13.00;99.90;;;;;;4931623;29;20059;-71
2022/10/30 08:28:42;;;;;;;59.97;36.70;;;13.00;99.90;;;;;;4932049;29;20040;-71
2022/10/30 08:31:08;;;;;;;77.82;38.95;;;13.10;99.90;;;;;;4930106;29;20166;-72
2022/10/30 08:33:35;;;;;;;65.97;39.63;;;13.20;99.90;;;;;;4935910;29;20051;-71
2022/10/30 08:36:01;;;;;;;65.45;39.53;;;13.20;99.90;;;;;;4947953;29;20051;-71
2022/10/30 08:38:27;;;;;;;77.43;36.28;;;13.30;99.90;;;;;;4932408;29;20059;-71
2022/10/30 08:40:53;;;;;;;65.43;38.63;;;13.30;99.90;;;;;;4929877;29;20055;-72
2022/10/30 08:43:19;;;;;;;58.80;36.72;;;13.50;99.90;;;;;;4932923;29;20051;-71
2022/10/30 08:45:45;;;;;;;62.55;40.10;;;13.40;99.90;;;;;;4931811;29;20504;-71
2022/10/30 08:48:13;;;;;;;78.50;40.15;;;13.50;99.90;;;;;;4946928;29;20051;-71
2022/10/30 08:50:39;;;;;;;66.72;41.95;;;13.60;99.90;;;;;;4927551;29;20052;-72
2022/10/30 08:53:07;;;;;;;71.10;44.95;;;13.60;99.90;;;;;;4945702;28;20425;-72
2022/10/30 08:55:34;;;;;;;62.40;40.60;;;13.80;99.90;;;;;;4947688;29;20048;-71
2022/10/30 08:58:00;;;;;;;67.85;42.25;;;13.80;99.90;;;;;;4946680;29;20048;-71
2022/10/30 09:00:27;;;;;;;66.72;40.53;;;14.10;99.90;;;;;;4931908;29;20043;-72
2022/10/30 09:02:52;;;;;;;68.38;41.25;;;14.10;99.90;;;;;;4922113;29;20067;-72
2022/10/30 09:05:18;;;;;;;84.80;42.15;;;14.10;99.90;;;;;;4946972;29;20052;-72
2022/10/30 09:07:44;;;;;;;68.63;39.88;;;14.30;99.90;;;;;;4947235;28;20050;-72
2022/10/30 09:10:10;;;;;;;61.30;38.25;;;14.40;99.90;;;;;;4943148;29;20055;-72
2022/10/30 09:12:35;;;;;;;55.65;35.88;;;14.50;99.90;;;;;;4930427;29;20044;-71
2022/10/30 09:15:01;;;;;;;59.60;37.72;;;14.60;99.90;;;;;;4929949;29;20054;-71
2022/10/30 09:17:27;;;;;;;64.18;36.53;;;14.70;99.90;;;;;;4931854;29;20047;-71
2022/10/30 09:19:52;;;;;;;64.13;36.17;;;14.80;99.90;;;;;;4928575;29;20048;-72
2022/10/30 09:22:18;;;;;;;55.08;34.55;;;15.00;99.90;;;;;;4931389;29;20106;-72
2022/10/30 09:24:44;;;;;;;68.55;38.97;;;15.20;99.90;;;;;;4932406;29;20044;-71
2022/10/30 09:27:09;;;;;;;68.57;36.63;;;15.30;99.90;;;;;;4924923;29;20056;-72
2022/10/30 09:29:35;;;;;;;64.20;37.65;;;15.40;99.90;;;;;;4928211;29;20072;-72
2022/10/30 09:32:03;;;;;;;62.60;36.75;;;15.70;99.90;;;;;;4933918;29;20066;-71
2022/10/30 09:34:30;;;;;;;71.95;34.63;;;15.80;99.90;;;;;;4929412;29;20056;-72
2022/10/30 09:36:56;;;;;;;58.58;35.45;;;16.10;99.90;;;;;;4930997;29;20047;-71
2022/10/30 09:39:21;;;;;;;65.30;37.33;;;16.30;99.90;;;;;;4927209;29;20055;-71
2022/10/30 09:41:53;;;;;;;55.78;32.45;;;16.30;99.90;;;;;;4929206;29;20074;-71
2022/10/30 09:44:46;;;;;;;64.38;35.17;;;16.50;99.90;;;;;;4930635;29;20075;-71
2022/10/30 09:47:44;;;;;;;51.53;32.05;;;16.70;99.90;;;;;;4920572;29;20078;-72
2022/10/30 09:50:26;;;;;;;57.72;34.58;;;16.90;99.90;;;;;;4930177;29;20083;-72
2022/10/30 09:53:13;;;;;;;54.85;34.50;;;17.10;99.90;;;;;;4930228;29;20476;-71
2022/10/30 09:56:03;;;;;;;55.55;30.85;;;17.20;99.90;;;;;;4931516;29;20044;-72
2022/10/30 09:58:35;;;;;;;57.97;30.70;;;17.40;99.90;;;;;;4930615;29;20063;-71
2022/10/30 10:01:26;;;;;;;67.47;33.50;;;17.40;99.90;;;;;;4930187;29;20083;-72
2022/10/30 10:04:06;;;;;;;51.97;30.05;;;17.40;99.90;;;;;;4946124;29;20413;-72
2022/10/30 10:06:34;;;;;;;50.50;29.20;;;17.60;99.90;;;;;;4923146;29;20050;-71
2022/10/30 10:09:05;;;;;;;53.38;30.60;;;17.60;99.90;;;;;;4928126;29;20060;-72
2022/10/30 10:11:41;;;;;;;54.80;31.15;;;17.80;99.90;;;;;;4931051;29;20047;-71
2022/10/30 10:14:18;;;;;;;44.45;29.25;;;17.90;99.90;;;;;;4925987;29;20459;-71
2022/10/30 10:16:50;;;;;;;70.60;33.50;;;18.10;99.90;;;;;;4923610;29;20074;-71
2022/10/30 10:19:22;;;;;;;52.60;30.15;;;18.10;99.90;;;;;;4931023;29;20051;-72
2022/10/30 10:21:59;;;;;;;57.92;29.30;;;18.20;99.90;;;;;;4930882;29;20048;-71
2022/10/30 10:24:36;;;;;;;45.38;28.70;;;18.40;99.90;;;;;;4929890;29;20058;-71
2022/10/30 10:27:24;;;;;;;62.63;28.08;;;18.60;99.90;;;;;;4930838;29;20043;-72
2022/10/30 10:30:11;;;;;;;41.50;27.02;;;18.70;99.90;;;;;;4936389;28;20102;-72
2022/10/30 10:32:43;;;;;;;64.27;27.87;;;18.70;99.90;;;;;;4935027;29;20052;-71
2022/10/30 10:35:23;;;;;;;49.30;27.48;;;18.90;99.90;;;;;;4928894;29;21095;-72
2022/10/30 10:38:06;;;;;;;47.17;26.70;;;18.90;99.90;;;;;;4945430;29;20059;-71
2022/10/30 10:40:51;;;;;;;40.38;26.10;;;19.10;99.90;;;;;;4930896;29;20052;-71
2022/10/30 10:43:22;;;;;;;45.58;25.23;;;19.20;99.90;;;;;;4927117;29;20063;-72
2022/10/30 10:45:54;;;;;;;44.97;24.77;;;19.10;99.90;;;;;;4930837;29;20048;-71
2022/10/30 10:48:37;;;;;;;42.45;25.58;;;19.10;99.90;;;;;;4944264;29;20135;-72
2022/10/30 10:51:26;;;;;;;46.58;23.05;;;19.20;99.90;;;;;;4930283;29;20637;-71
2022/10/30 10:53:59;;;;;;;44.85;22.48;;;19.40;99.90;;;;;;4929793;29;20473;-72
2022/10/30 10:56:34;;;;;;;32.35;20.80;;;19.50;99.90;;;;;;4930370;29;20107;-71
2022/10/30 10:59:11;;;;;;;42.10;23.15;;;19.70;99.90;;;;;;4929706;29;20055;-71
2022/10/30 11:01:52;;;;;;;43.88;25.35;;;19.60;99.90;;;;;;4930689;29;20059;-71
2022/10/30 11:04:33;;;;;;;55.60;24.35;;;19.70;99.90;;;;;;4920998;29;20047;-71
2022/10/30 11:07:09;;;;;;;45.22;24.95;;;19.70;99.90;;;;;;4956385;28;20305;-71
2022/10/30 11:09:34;;;;;;;40.80;24.08;;;19.80;99.90;;;;;;4930659;29;20056;-71
2022/10/30 11:12:03;;;;;;;45.35;23.80;;;19.90;99.90;;;;;;4931538;29;20051;-71
2022/10/30 11:14:29;;;;;;;42.25;22.42;;;19.90;99.90;;;;;;4927239;29;20099;-71
2022/10/30 11:17:19;;;;;;;41.08;22.60;;;19.90;99.90;;;;;;4944349;28;20048;-71
2022/10/30 11:19:48;;;;;;;43.80;21.75;;;20.10;99.90;;;;;;4927590;29;20138;-71
2022/10/30 11:22:30;;;;;;;48.38;23.58;;;20.30;99.90;;;;;;4931492;29;20079;-71
2022/10/30 11:25:15;;;;;;;49.58;19.90;;;20.40;99.90;;;;;;4940395;29;20059;-71
2022/10/30 11:27:43;;;;;;;38.45;21.65;;;20.40;99.90;;;;;;4929406;29;20048;-71
2022/10/30 11:30:24;;;;;;;31.05;20.60;;;20.60;99.90;;;;;;4948678;28;20079;-73
2022/10/30 11:32:49;;;;;;;33.05;19.45;;;20.60;99.90;;;;;;4936365;29;20078;-71
2022/10/30 11:35:18;;;;;;;41.35;18.48;;;20.70;99.90;;;;;;4945448;29;20094;-71
2022/10/30 11:37:47;;;;;;;37.85;19.25;;;20.80;99.90;;;;;;4929999;29;20047;-71
2022/10/30 11:40:13;;;;;;;36.33;19.65;;;21.00;99.90;;;;;;4929226;29;20054;-71
2022/10/30 11:42:51;;;;;;;39.10;18.98;;;21.10;99.90;;;;;;4929205;29;20048;-71
2022/10/30 11:45:26;;;;;;;38.60;15.90;;;21.20;99.90;;;;;;4928685;29;20052;-70
2022/10/30 11:47:54;;;;;;;29.33;17.95;;;21.30;99.90;;;;;;4930260;29;20044;-71
2022/10/30 11:50:22;;;;;;;37.30;19.23;;;21.20;99.90;;;;;;4929784;29;20135;-71
2022/10/30 11:52:54;;;;;;;36.38;17.83;;;21.20;99.90;;;;;;4928566;29;20044;-71
2022/10/30 11:55:27;;;;;;;35.05;16.55;;;21.40;99.90;;;;;;4930115;29;20055;-71
2022/10/30 11:57:57;;;;;;;34.10;15.93;;;21.40;99.90;;;;;;4928374;29;20473;-70
2022/10/30 12:00:29;;;;;;;44.10;19.80;;;21.40;99.90;;;;;;4928989;29;20040;-71
2022/10/30 12:02:59;;;;;;;29.30;14.93;;;21.40;99.90;;;;;;4927923;29;20047;-71
2022/10/30 12:05:24;;;;;;;31.52;17.52;;;21.30;99.90;;;;;;4930103;29;20035;-70
2022/10/30 12:08:05;;;;;;;32.95;16.02;;;21.30;99.90;;;;;;4932206;29;20110;-70
2022/10/30 12:10:45;;;;;;;22.90;13.48;;;21.40;99.90;;;;;;4931993;29;20048;-70
2022/10/30 12:13:15;;;;;;;47.05;16.77;;;21.50;99.90;;;;;;4925337;29;20066;-70
2022/10/30 12:15:41;;;;;;;36.05;16.25;;;21.40;99.90;;;;;;4933315;29;20059;-70
2022/10/30 12:18:18;;;;;;;28.08;13.63;;;21.40;99.90;;;;;;4934374;29;20106;-70
2022/10/30 12:20:46;;;;;;;32.95;13.90;;;21.40;99.90;;;;;;4933742;29;20118;-70
2022/10/30 12:23:18;;;;;;;39.40;16.25;;;21.40;99.90;;;;;;4932949;29;20055;-71
2022/10/30 12:25:58;;;;;;;29.90;15.80;;;21.40;99.90;;;;;;4933253;29;20134;-70
2022/10/30 12:28:27;;;;;;;22.35;13.32;;;21.50;99.90;;;;;;4923566;29;20606;-70
2022/10/30 12:31:05;;;;;;;36.70;14.45;;;21.40;99.90;;;;;;4930657;29;20071;-71
2022/10/30 12:34:02;;;;;;;41.55;15.68;;;21.50;99.90;;;;;;4933109;29;20055;-71
2022/10/30 12:36:32;;;;;;;27.45;15.27;;;21.50;99.90;;;;;;4930088;29;20102;-71
2022/10/30 12:39:20;;;;;;;26.55;13.65;;;21.50;99.90;;;;;;4930961;29;20048;-71